Terminal Aerodrome Forecast
Issued by NWS

Home | Current Version | Previous Version | Text Only | Print | Product List | Glossary On
Versions: 1 2 3 4 5 6 7 8 9 10 11 12
000
FTUS45 KRIW 212300
TAFWRL
TAF
KWRL 212336Z 2200/2224 36007KT P6SM SCT080 SCT110
     FM220200 35009KT P6SM VCSH FEW050 BKN100
     FM220600 VRB06KT P6SM SCT120
     FM222200 33011KT P6SM VCTS SCT040CB BKN080=

USA.gov is the U.S. government's official web portal to all federal, state and local government web resources and services.